Time;durP1;ratioP1;P1;durP2;ratioP2;P2;SDS_P1;SDS_P2;PMS_P1;PMS_P2;Temp;Humidity;BMP_temperature;BMP_pressure;BME280_temperature;BME280_humidity;BME280_pressure;Samples;Min_cycle;Max_cycle;Signal;HPM_P1;HPM_P2
2023/01/06 00:00:36;;;;;;;;;1.00;1.00;;;;;13.05;69.17;101762.50;5056512;28;45431;-74
2023/01/06 00:03:01;;;;;;;;;0.67;0.67;;;;;13.18;68.81;101778.28;5059479;28;46068;-76
2023/01/06 00:05:28;;;;;;;;;2.00;1.00;;;;;12.86;68.70;101725.06;5057884;28;45493;-75
2023/01/06 00:07:54;;;;;;;;;3.00;1.00;;;;;13.10;68.57;101756.75;5059256;28;45518;-75
2023/01/06 00:10:19;;;;;;;;;2.00;2.00;;;;;13.18;69.13;101772.09;5059018;28;45695;-74
2023/01/06 00:12:46;;;;;;;;;1.33;1.00;;;;;12.94;68.62;101746.56;5061281;28;45459;-75
2023/01/06 00:15:12;;;;;;;;;1.00;1.00;;;;;12.75;69.08;101728.66;5062145;28;45436;-76
2023/01/06 00:17:38;;;;;;;;;3.00;2.00;;;;;13.01;68.96;101771.75;5041023;28;45328;-73
2023/01/06 00:20:04;;;;;;;;;1.00;1.00;;;;;12.85;69.49;101747.38;5059320;28;45151;-75
2023/01/06 00:22:29;;;;;;;;;1.00;1.00;;;;;12.02;69.47;101617.72;5059178;28;45410;-76
2023/01/06 00:24:54;;;;;;;;;2.00;1.00;;;;;12.79;69.39;101747.91;5040729;28;46174;-74
2023/01/06 00:27:20;;;;;;;;;0.67;0.00;;;;;12.88;69.47;101760.44;5059080;28;45271;-75
2023/01/06 00:29:47;;;;;;;;;1.00;1.00;;;;;13.11;69.25;101801.16;5040979;28;45542;-73
2023/01/06 00:32:13;;;;;;;;;1.00;1.00;;;;;12.97;68.70;101759.63;5045630;28;46718;-74
2023/01/06 00:34:38;;;;;;;;;0.00;0.00;;;;;13.03;69.13;101780.47;5061192;28;45348;-75
2023/01/06 00:37:04;;;;;;;;;1.00;1.00;;;;;12.91;68.99;101746.00;5059345;28;45304;-76
2023/01/06 00:39:29;;;;;;;;;2.00;1.00;;;;;12.81;68.88;101732.59;5041168;28;45533;-74
2023/01/06 00:42:03;;;;;;;;;1.00;1.00;;;;;13.13;68.95;101793.00;5058666;28;45270;-74
2023/01/06 00:44:38;;;;;;;;;0.67;0.67;;;;;13.03;68.88;101788.47;5040717;28;46007;-76
2023/01/06 00:47:08;;;;;;;;;1.00;1.00;;;;;12.01;68.84;101616.00;5058806;28;45319;-74
2023/01/06 00:49:34;;;;;;;;;0.67;0.67;;;;;12.98;69.04;101782.69;5059239;28;45462;-76
2023/01/06 00:51:59;;;;;;;;;0.00;0.00;;;;;12.95;69.29;101761.59;5040667;28;48043;-74
2023/01/06 00:54:25;;;;;;;;;0.00;0.00;;;;;13.05;69.28;101789.19;5040513;28;45986;-75
2023/01/06 00:56:52;;;;;;;;;2.33;1.00;;;;;12.26;68.92;101660.06;5058619;28;45229;-76
2023/01/06 00:59:21;;;;;;;;;0.00;0.00;;;;;12.98;69.28;101788.00;5058892;28;45522;-74
2023/01/06 01:01:48;;;;;;;;;2.00;1.00;;;;;12.63;69.23;101731.56;5059031;28;45607;-76
2023/01/06 01:04:14;;;;;;;;;1.67;1.00;;;;;13.04;69.07;101787.50;5058277;28;45459;-76
2023/01/06 01:06:41;;;;;;;;;1.00;1.00;;;;;12.69;69.53;101766.53;5058532;28;45296;-75
2023/01/06 01:09:06;;;;;;;;;0.33;0.33;;;;;12.82;69.75;101761.00;5042337;28;45296;-75
2023/01/06 01:14:20;;;;;;;;;1.00;1.00;;;;;12.98;69.84;101797.84;5058401;28;45446;-75
2023/01/06 01:16:45;;;;;;;;;0.33;0.33;;;;;13.04;69.98;101803.53;5058199;28;45474;-75
2023/01/06 01:19:12;;;;;;;;;1.00;1.00;;;;;12.82;70.44;101763.66;5058258;28;45355;-74
2023/01/06 01:21:38;;;;;;;;;0.00;0.00;;;;;12.77;70.77;101774.72;5057982;28;45716;-76
2023/01/06 01:24:03;;;;;;;;;2.00;1.00;;;;;12.98;70.57;101793.34;5057701;28;46348;-72
2023/01/06 01:26:29;;;;;;;;;1.00;1.00;;;;;12.83;70.53;101756.50;5057890;28;45325;-74
2023/01/06 01:28:54;;;;;;;;;2.33;2.33;;;;;12.70;70.77;101740.72;5039860;28;45204;-75
2023/01/06 01:31:20;;;;;;;;;1.33;1.33;;;;;12.61;70.32;101741.50;5057776;28;46392;-73
2023/01/06 01:33:45;;;;;;;;;1.67;1.00;;;;;12.89;71.04;101769.31;5058012;28;45230;-73
2023/01/06 01:36:14;;;;;;;;;0.33;0.33;;;;;12.80;70.57;101757.59;5057932;28;45173;-74
2023/01/06 01:38:39;;;;;;;;;1.33;0.67;;;;;12.91;70.94;101786.88;5057955;28;45492;-73
2023/01/06 01:41:05;;;;;;;;;0.50;0.25;;;;;12.93;71.14;101774.22;5057456;28;45435;-76
2023/01/06 01:43:44;;;;;;;;;0.00;0.00;;;;;12.85;71.27;101766.06;5057981;28;45428;-74
2023/01/06 01:46:12;;;;;;;;;0.33;0.33;;;;;12.70;71.57;101738.03;5058096;28;45309;-74
2023/01/06 01:48:38;;;;;;;;;0.00;0.00;;;;;12.60;71.41;101735.31;5063015;28;45493;-75
2023/01/06 01:51:08;;;;;;;;;1.00;0.00;;;;;12.83;71.60;101751.16;5059570;28;45500;-76
2023/01/06 01:53:39;;;;;;;;;0.00;0.00;;;;;12.86;71.07;101748.22;5057806;28;45290;-76
2023/01/06 01:56:08;;;;;;;;;2.00;0.33;;;;;12.83;71.42;101752.00;5039480;28;45475;-74
2023/01/06 01:58:42;;;;;;;;;0.67;0.67;;;;;12.81;71.39;101753.94;5039411;28;45602;-74
2023/01/06 02:01:09;;;;;;;;;0.00;0.00;;;;;12.63;71.62;101736.91;5057262;28;47049;-74
2023/01/06 02:03:36;;;;;;;;;0.00;0.00;;;;;12.80;71.71;101757.59;5057231;28;45395;-74
2023/01/06 02:06:04;;;;;;;;;1.00;1.00;;;;;10.61;71.59;101405.16;5039573;28;45288;-74
2023/01/06 02:08:39;;;;;;;;;0.50;0.50;;;;;12.67;71.59;101751.66;5057734;28;45515;-75
2023/01/06 02:11:07;;;;;;;;;2.00;1.00;;;;;12.20;71.52;101679.22;5057293;28;45711;-73
2023/01/06 02:13:34;;;;;;;;;2.00;1.00;;;;;11.98;71.58;101636.72;5059113;28;45249;-75
2023/01/06 02:16:15;;;;;;;;;0.00;0.00;;;;;12.29;71.50;101702.44;5059725;28;45487;-75
2023/01/06 02:18:54;;;;;;;;;0.67;0.67;;;;;12.10;71.14;101652.53;5057428;28;45404;-74
2023/01/06 02:21:31;;;;;;;;;0.33;0.00;;;;;12.69;71.79;101755.03;5040016;28;47390;-75
2023/01/06 02:24:36;;;;;;;;;0.00;0.00;;;;;12.68;72.36;101750.66;5038887;28;45339;-73
2023/01/06 02:27:07;;;;;;;;;0.00;0.00;;;;;12.57;72.60;101756.06;5057359;28;45468;-73
2023/01/06 02:29:44;;;;;;;;;0.00;0.00;;;;;12.55;72.72;101768.69;5057576;28;45262;-74
2023/01/06 02:32:38;;;;;;;;;0.00;0.00;;;;;12.58;72.71;101760.44;5056745;28;45991;-74
2023/01/06 02:35:31;;;;;;;;;0.00;0.00;;;;;12.61;72.60;101752.16;5057125;28;45434;-75
2023/01/06 02:38:08;;;;;;;;;0.00;0.00;;;;;12.61;72.34;101763.69;5057233;28;45545;-75
2023/01/06 02:40:48;;;;;;;;;0.00;0.00;;;;;12.65;72.23;101761.63;5057259;28;45525;-75
2023/01/06 02:43:27;;;;;;;;;0.00;0.00;;;;;12.48;72.44;101736.38;5056820;28;45604;-74
2023/01/06 02:46:16;;;;;;;;;0.00;0.00;;;;;12.57;72.81;101750.75;5056796;28;45418;-74
2023/01/06 02:48:56;;;;;;;;;0.67;0.67;;;;;12.24;72.65;101693.16;5056794;28;45288;-74
2023/01/06 02:51:34;;;;;;;;;0.33;0.33;;;;;12.54;72.96;101737.66;5056949;28;45503;-73
2023/01/06 02:54:19;;;;;;;;;0.67;0.67;;;;;12.48;73.29;101745.22;5056575;28;46008;-74
2023/01/06 02:56:52;;;;;;;;;0.00;0.00;;;;;11.83;72.88;101626.44;5056832;28;45232;-76
2023/01/06 02:59:25;;;;;;;;;0.00;0.00;;;;;12.44;73.35;101730.47;5056740;28;45262;-74
2023/01/06 03:01:53;;;;;;;;;1.00;1.00;;;;;12.12;72.91;101671.06;5055309;28;45458;-74
2023/01/06 03:04:24;;;;;;;;;1.33;1.33;;;;;12.08;73.01;101640.31;5056574;28;45760;-74
2023/01/06 03:06:52;;;;;;;;;0.00;0.00;;;;;12.48;72.94;101699.03;5038716;28;45909;-75
2023/01/06 03:09:21;;;;;;;;;1.00;1.00;;;;;12.46;72.55;101711.66;5056419;28;45349;-74
2023/01/06 03:11:50;;;;;;;;;0.00;0.00;;;;;12.43;72.79;101696.78;5058645;28;45513;-75
2023/01/06 03:14:30;;;;;;;;;1.00;1.00;;;;;12.53;72.54;101711.97;5059806;28;48419;-73
2023/01/06 03:16:56;;;;;;;;;0.00;0.00;;;;;12.28;72.43;101665.25;5060558;28;45393;-74
2023/01/06 03:19:23;;;;;;;;;1.00;0.00;;;;;12.55;72.35;101704.69;5060149;28;45313;-74
2023/01/06 03:21:50;;;;;;;;;1.00;0.00;;;;;12.47;72.40;101703.53;5060333;28;45664;-74
2023/01/06 03:24:16;;;;;;;;;1.00;0.00;;;;;12.52;72.40;101710.28;5060411;28;45824;-74
2023/01/06 03:26:44;;;;;;;;;1.00;1.00;;;;;11.75;72.29;101578.22;5060860;28;45266;-75
2023/01/06 03:29:14;;;;;;;;;1.00;0.00;;;;;12.52;72.65;101720.97;5060194;28;45534;-74
2023/01/06 03:31:52;;;;;;;;;0.00;0.00;;;;;12.09;72.13;101644.66;5060340;28;45488;-74
2023/01/06 03:34:29;;;;;;;;;0.00;0.00;;;;;12.55;72.51;101713.53;5059836;28;46645;-74
2023/01/06 03:37:08;;;;;;;;;0.00;0.00;;;;;12.54;72.50;101730.50;5041824;28;45286;-74
2023/01/06 03:39:54;;;;;;;;;0.00;0.00;;;;;12.55;72.85;101710.88;5059790;28;45313;-75
2023/01/06 03:45:22;;;;;;;;;0.00;0.00;;;;;12.46;72.63;101682.34;5059696;28;45787;-71
2023/01/06 03:48:06;;;;;;;;;0.33;0.33;;;;;12.49;72.86;101704.25;5059589;28;45289;-76
2023/01/06 03:50:39;;;;;;;;;0.33;0.00;;;;;12.28;72.46;101673.25;5059856;28;45409;-76
2023/01/06 03:53:41;;;;;;;;;1.00;1.00;;;;;12.44;73.09;101698.47;5059933;28;45355;-74
2023/01/06 03:56:18;;;;;;;;;0.00;0.00;;;;;12.44;73.71;101702.97;5061310;28;47096;-74
2023/01/06 03:58:47;;;;;;;;;0.00;0.00;;;;;12.47;73.04;101695.53;5045794;28;45514;-74
2023/01/06 04:01:14;;;;;;;;;0.00;0.00;;;;;12.27;73.98;101664.41;5060025;28;45294;-75
2023/01/06 04:03:43;;;;;;;;;0.67;0.67;;;;;12.36;73.96;101679.59;5060437;28;45377;-74
2023/01/06 04:06:09;;;;;;;;;0.00;0.00;;;;;12.37;73.95;101675.97;5060223;28;45398;-74
2023/01/06 04:08:34;;;;;;;;;0.00;0.00;;;;;12.17;74.21;101652.84;5057884;28;45541;-74
2023/01/06 04:10:59;;;;;;;;;0.00;0.00;;;;;11.93;74.01;101617.63;5059422;28;45470;-74
2023/01/06 04:13:24;;;;;;;;;0.00;0.00;;;;;12.33;74.35;101685.22;5041497;28;45570;-75
2023/01/06 04:15:50;;;;;;;;;0.00;0.00;;;;;12.26;74.00;101665.41;5059044;28;46433;-76
2023/01/06 04:18:15;;;;;;;;;0.00;0.00;;;;;12.12;73.76;101645.25;5041446;28;45999;-75
2023/01/06 04:20:40;;;;;;;;;0.00;0.00;;;;;12.38;74.19;101680.31;5061212;28;45305;-74
2023/01/06 04:23:06;;;;;;;;;0.00;0.00;;;;;12.40;73.72;101685.50;5059201;28;45176;-73
2023/01/06 04:25:31;;;;;;;;;0.00;0.00;;;;;12.39;73.77;101682.00;5058880;28;46415;-76
2023/01/06 04:27:56;;;;;;;;;1.00;0.00;;;;;12.30;74.26;101680.16;5059205;28;45186;-75
2023/01/06 04:30:22;;;;;;;;;0.00;0.00;;;;;12.44;73.68;101690.47;5059263;28;45520;-73
2023/01/06 04:32:47;;;;;;;;;0.00;0.00;;;;;11.47;73.55;101525.66;5059348;28;45552;-74
2023/01/06 04:35:12;;;;;;;;;1.00;1.00;;;;;12.05;73.53;101637.91;5040465;28;46512;-74
2023/01/06 04:37:38;;;;;;;;;0.00;0.00;;;;;12.33;73.36;101677.22;5058467;28;45398;-73
2023/01/06 04:40:06;;;;;;;;;0.00;0.00;;;;;12.07;74.16;101625.31;5059038;28;45289;-75
2023/01/06 04:43:02;;;;;;;;;0.00;0.00;;;;;12.28;73.87;101658.09;5058940;28;45326;-74
2023/01/06 04:45:17;;;;;;;;;1.00;1.00;;;;;12.23;74.00;101649.66;5058521;28;45371;-73
2023/01/06 04:47:42;;;;;;;;;0.00;0.00;;;;;12.42;74.07;101668.44;5058598;28;45350;-75
2023/01/06 04:50:07;;;;;;;;;1.00;0.00;;;;;12.06;73.82;101610.28;5058709;28;45428;-75
2023/01/06 04:52:33;;;;;;;;;0.00;0.00;;;;;12.38;74.17;101669.66;5040833;28;45270;-74
2023/01/06 04:54:58;;;;;;;;;1.00;1.00;;;;;12.33;73.94;101653.22;5040195;28;48524;-73
2023/01/06 04:57:23;;;;;;;;;0.00;0.00;;;;;12.37;73.71;101659.13;5058571;28;45201;-74
2023/01/06 04:59:49;;;;;;;;;0.33;0.33;;;;;12.42;73.99;101656.91;5057971;28;61493;-74
2023/01/06 05:02:14;;;;;;;;;0.00;0.00;;;;;12.16;74.16;101608.50;5040574;28;45419;-74
2023/01/06 05:04:39;;;;;;;;;0.00;0.00;;;;;11.39;74.36;101491.66;5058075;28;45358;-73
2023/01/06 05:07:05;;;;;;;;;0.67;0.00;;;;;12.34;74.07;101635.38;5058186;28;45490;-75
2023/01/06 05:09:30;;;;;;;;;0.00;0.00;;;;;11.48;74.64;101490.06;5058075;28;53223;-72
2023/01/06 05:11:55;;;;;;;;;0.00;0.00;;;;;12.33;74.09;101629.22;5058374;28;45155;-73
2023/01/06 05:14:20;;;;;;;;;0.00;0.00;;;;;12.07;74.07;101586.16;5042187;28;47701;-73
2023/01/06 05:16:46;;;;;;;;;0.00;0.00;;;;;12.29;74.46;101617.13;5083749;27;45466;-74
2023/01/06 05:19:11;;;;;;;;;0.00;0.00;;;;;12.30;74.77;101623.31;5078134;27;45489;-75
2023/01/06 05:21:37;;;;;;;;;0.00;0.00;;;;;12.45;74.74;101651.31;5078519;27;45436;-73
2023/01/06 05:24:02;;;;;;;;;1.00;1.00;;;;;12.34;74.11;101619.38;5078130;27;45503;-74
2023/01/06 05:26:28;;;;;;;;;3.33;1.00;;;;;12.51;74.01;101658.75;5078370;27;45527;-74
2023/01/06 05:28:54;;;;;;;;;7.00;7.00;;;;;12.51;74.10;101658.75;5078415;27;45401;-74
2023/01/06 05:31:20;;;;;;;;;0.67;0.67;;;;;12.44;74.45;101652.28;5079476;27;45371;-74
2023/01/06 05:33:45;;;;;;;;;1.00;1.00;;;;;11.86;74.00;101554.22;5077233;27;46713;-74
2023/01/06 05:36:13;;;;;;;;;1.00;1.00;;;;;12.64;73.50;101677.22;5077826;27;45493;-73
2023/01/06 05:38:39;;;;;;;;;0.00;0.00;;;;;12.58;74.05;101667.06;5080426;27;45217;-74
2023/01/06 05:41:05;;;;;;;;;1.00;1.00;;;;;12.63;74.11;101686.22;5083701;27;45450;-76
2023/01/06 05:43:33;;;;;;;;;0.00;0.00;;;;;12.10;74.08;101599.22;5078601;27;47088;-74
2023/01/06 05:45:59;;;;;;;;;0.00;0.00;;;;;12.67;73.75;101684.94;5078034;27;45349;-73
2023/01/06 05:48:26;;;;;;;;;0.00;0.00;;;;;12.61;74.07;101682.78;5077906;27;45495;-75
2023/01/06 05:50:51;;;;;;;;;1.00;0.00;;;;;12.63;74.15;101691.53;5076658;27;45399;-76
2023/01/06 05:53:17;;;;;;;;;3.00;0.67;;;;;11.84;74.21;101561.50;5077618;27;45681;-75
2023/01/06 05:55:42;;;;;;;;;1.00;1.00;;;;;12.65;73.69;101705.59;5077630;27;45431;-73
2023/01/06 05:58:08;;;;;;;;;2.00;1.00;;;;;12.70;73.95;101698.84;5077852;27;45341;-73
2023/01/06 06:00:33;;;;;;;;;1.67;0.00;;;;;12.15;73.33;101596.16;5077942;27;45533;-75
2023/01/06 06:02:58;;;;;;;;;1.00;1.00;;;;;12.39;73.16;101628.66;5077247;27;47008;-78
2023/01/06 06:05:24;;;;;;;;;1.67;1.67;;;;;12.51;73.24;101661.44;5077724;27;45247;-75
2023/01/06 06:07:56;;;;;;;;;1.00;0.00;;;;;12.81;73.32;101705.91;5078103;27;45368;-73
2023/01/06 06:10:22;;;;;;;;;1.00;1.00;;;;;12.80;73.36;101682.88;5077944;28;45462;-74
2023/01/06 06:12:51;;;;;;;;;0.00;0.00;;;;;12.39;72.72;101619.81;5093229;27;47173;-76
2023/01/06 06:15:17;;;;;;;;;1.00;1.00;;;;;12.69;72.98;101658.97;5073227;28;45466;-74
2023/01/06 06:17:42;;;;;;;;;1.00;1.00;;;;;12.85;72.95;101687.81;5057440;28;45467;-75
2023/01/06 06:20:08;;;;;;;;;1.25;0.25;;;;;12.24;72.62;101597.19;5058620;28;45466;-78
2023/01/06 06:22:33;;;;;;;;;1.00;1.00;;;;;12.61;72.70;101656.97;5057878;28;45589;-76
2023/01/06 06:24:58;;;;;;;;;1.00;1.00;;;;;12.80;73.13;101682.88;5055984;28;46055;-73
2023/01/06 06:27:24;;;;;;;;;0.00;0.00;;;;;12.78;72.79;101695.50;5038945;28;45320;-75
2023/01/06 06:29:49;;;;;;;;;0.00;0.00;;;;;12.42;72.78;101641.75;5057336;28;45473;-76
2023/01/06 06:32:14;;;;;;;;;0.67;0.67;;;;;12.72;73.06;101696.06;5038855;28;51942;-73
2023/01/06 06:34:40;;;;;;;;;0.67;0.00;;;;;12.33;73.10;101642.53;5058924;28;46917;-73
2023/01/06 06:37:05;;;;;;;;;0.00;0.00;;;;;12.63;73.38;101695.06;5061807;28;45537;-72
2023/01/06 06:39:30;;;;;;;;;0.00;0.00;;;;;12.64;73.37;101688.75;5039646;28;51145;-74
2023/01/06 06:41:56;;;;;;;;;1.00;1.00;;;;;12.36;73.28;101646.75;5056961;28;45461;-77
2023/01/06 06:44:21;;;;;;;;;0.00;0.00;;;;;12.46;73.57;101661.84;5045672;28;45464;-78
2023/01/06 06:46:46;;;;;;;;;1.33;1.33;;;;;12.64;73.44;101687.88;5061433;28;45506;-74
2023/01/06 06:49:12;;;;;;;;;4.00;3.00;;;;;12.72;73.13;101693.38;5081331;27;45882;-79
2023/01/06 06:51:37;;;;;;;;;1.00;1.00;;;;;12.82;73.25;101704.97;5070817;28;48638;-76
2023/01/06 06:54:03;;;;;;;;;0.00;0.00;;;;;12.74;73.02;101700.28;5066377;28;45391;-77
2023/01/06 06:56:28;;;;;;;;;0.67;0.67;;;;;12.68;73.56;101705.31;5051934;28;45430;-74
2023/01/06 06:58:54;;;;;;;;;1.00;1.00;;;;;12.24;73.94;101615.84;5079270;28;45466;-75
2023/01/06 07:01:20;;;;;;;;;2.33;2.33;;;;;12.76;73.49;101703.66;5080239;28;45501;-71
2023/01/06 07:03:46;;;;;;;;;1.00;1.00;;;;;12.40;73.76;101649.03;5080227;28;45486;-73
2023/01/06 07:06:18;;;;;;;;;1.67;1.67;;;;;12.70;73.39;101688.19;5078658;28;45545;-75
2023/01/06 07:08:44;;;;;;;;;1.00;1.00;;;;;12.76;73.34;101705.47;5079417;28;45453;-74
2023/01/06 07:11:10;;;;;;;;;0.00;0.00;;;;;12.64;73.85;101698.56;5078500;28;45944;-77
2023/01/06 07:13:35;;;;;;;;;0.67;0.67;;;;;12.71;73.68;101708.56;5078353;27;46026;-72
2023/01/06 07:16:01;;;;;;;;;1.00;1.00;;;;;12.46;73.83;101663.66;5072948;27;56576;-74
2023/01/06 07:18:26;;;;;;;;;3.00;2.00;;;;;12.81;73.81;101716.56;5099413;27;45648;-75
2023/01/06 07:21:05;;;;;;;;;1.00;1.00;;;;;12.81;73.67;101713.91;5101622;27;45985;-74
2023/01/06 07:23:31;;;;;;;;;2.00;2.00;;;;;12.51;73.91;101665.91;5083564;27;45404;-76
2023/01/06 07:25:58;;;;;;;;;1.00;1.00;;;;;12.88;73.70;101719.56;5079836;27;45428;-75
2023/01/06 07:28:25;;;;;;;;;1.00;1.00;;;;;12.71;73.51;101699.69;5080420;27;45497;-76
2023/01/06 07:30:51;;;;;;;;;1.67;1.67;;;;;12.53;73.65;101664.81;5074234;28;46674;-74
2023/01/06 07:33:17;;;;;;;;;1.00;1.00;;;;;12.75;73.54;101701.13;5062861;28;45291;-74
2023/01/06 07:35:42;;;;;;;;;2.00;2.00;;;;;12.79;73.45;101694.53;5074040;27;45482;-74
2023/01/06 07:38:08;;;;;;;;;3.00;3.00;;;;;12.92;73.29;101715.66;5060328;28;45460;-75
2023/01/06 07:40:35;;;;;;;;;1.33;0.67;;;;;12.31;73.36;101607.16;5066184;28;46316;-74
2023/01/06 07:43:08;;;;;;;;;2.00;1.00;;;;;12.70;74.28;101684.69;5077619;27;45371;-72
2023/01/06 07:45:34;;;;;;;;;2.00;2.00;;;;;12.84;74.10;101724.34;5059343;28;45401;-76
2023/01/06 07:48:00;;;;;;;;;4.33;4.00;;;;;12.79;74.26;101711.38;5090192;27;45602;-75
2023/01/06 07:50:26;;;;;;;;;1.00;1.00;;;;;12.70;74.15;101708.69;5059245;28;46833;-73
2023/01/06 07:52:51;;;;;;;;;2.00;2.00;;;;;12.81;74.14;101727.25;5060008;28;45382;-74
2023/01/06 07:55:17;;;;;;;;;1.33;1.33;;;;;12.13;73.98;101606.09;5059099;28;45573;-73
2023/01/06 07:57:42;;;;;;;;;3.00;3.00;;;;;12.77;73.99;101715.16;5073964;28;45323;-75
2023/01/06 08:00:11;;;;;;;;;2.00;2.00;;;;;12.92;73.43;101727.16;5076027;28;47237;-76
2023/01/06 08:02:36;;;;;;;;;3.33;3.33;;;;;12.90;73.82;101737.13;5086078;27;45522;-76
2023/01/06 08:05:02;;;;;;;;;2.00;2.00;;;;;12.34;74.07;101640.72;5069749;27;45663;-73
2023/01/06 08:07:27;;;;;;;;;5.00;2.00;;;;;12.88;74.38;101732.91;5073824;28;45425;-74
2023/01/06 08:09:53;;;;;;;;;2.00;2.00;;;;;12.61;73.99;101677.47;5074713;28;47664;-76
2023/01/06 08:12:18;;;;;;;;;4.67;3.33;;;;;12.94;73.67;101727.03;5057766;28;45481;-74
2023/01/06 08:14:44;;;;;;;;;2.00;2.00;;;;;12.17;73.57;101588.84;5058629;28;45529;-75
2023/01/06 08:17:09;;;;;;;;;2.00;2.00;;;;;12.65;73.61;101662.91;5042819;28;46762;-75
2023/01/06 08:19:34;;;;;;;;;3.00;3.00;;;;;12.48;73.65;101627.88;5046514;28;46658;-76
2023/01/06 08:22:00;;;;;;;;;2.00;2.00;;;;;12.80;73.99;101698.88;5041829;28;45464;-75
2023/01/06 08:24:25;;;;;;;;;5.00;4.00;;;;;13.07;73.54;101727.66;5043645;28;45423;-75
2023/01/06 08:26:51;;;;;;;;;5.33;4.00;;;;;13.13;73.58;101745.78;5030435;28;45617;-73
2023/01/06 08:29:16;;;;;;;;;5.00;4.00;;;;;12.87;73.31;101692.03;5056990;28;46505;-75
2023/01/06 08:31:41;;;;;;;;;4.00;3.00;;;;;12.71;73.24;101660.53;5028927;28;55282;-74
2023/01/06 08:34:13;;;;;;;;;3.00;3.00;;;;;13.02;73.59;101713.88;5025248;28;45450;-76
2023/01/06 08:36:40;;;;;;;;;5.00;4.00;;;;;12.57;72.88;101636.03;5054652;28;45340;-73
2023/01/06 08:39:06;;;;;;;;;3.00;3.00;;;;;12.94;72.59;101689.66;5040390;28;46478;-76
2023/01/06 08:41:31;;;;;;;;;6.33;6.33;;;;;13.22;72.98;101736.16;5055661;28;45483;-74
2023/01/06 08:43:57;;;;;;;;;3.00;3.00;;;;;13.30;72.98;101747.00;5038385;28;45346;-78
2023/01/06 08:46:22;;;;;;;;;3.00;3.00;;;;;12.70;72.99;101656.16;5038569;28;45479;-76
2023/01/06 08:48:48;;;;;;;;;3.00;2.00;;;;;12.75;72.65;101659.25;5021479;28;47387;-79
2023/01/06 08:51:17;;;;;;;;;4.00;4.00;;;;;12.46;72.86;101615.66;5043457;28;46271;-78
2023/01/06 08:53:43;;;;;;;;;3.33;3.33;;;;;13.17;73.01;101727.66;5040924;28;45335;-76
2023/01/06 08:56:27;;;;;;;;;5.00;5.00;;;;;13.09;72.86;101715.84;5041006;28;45476;-76
2023/01/06 08:59:02;;;;;;;;;2.33;2.33;;;;;13.27;72.77;101750.78;5039589;28;46447;-78
2023/01/06 09:01:34;;;;;;;;;2.33;2.33;;;;;13.06;73.10;101710.78;5032321;28;45515;-77
2023/01/06 09:04:01;;;;;;;;;3.00;2.00;;;;;12.71;72.80;101654.34;5051944;28;45537;-76
2023/01/06 09:06:27;;;;;;;;;4.33;4.33;;;;;13.13;72.91;101731.59;5021692;28;45344;-76
2023/01/06 09:08:55;;;;;;;;;3.00;3.00;;;;;13.26;72.75;101753.59;5057273;28;45606;-77
2023/01/06 09:11:21;;;;;;;;;3.67;3.67;;;;;13.25;73.04;101746.56;5046018;28;45424;-77
2023/01/06 09:13:49;;;;;;;;;7.00;4.33;;;;;13.22;72.88;101730.81;5028497;28;45318;-79
2023/01/06 09:16:15;;;;;;;;;4.00;4.00;;;;;13.29;72.67;101746.16;5046634;28;45404;-77
2023/01/06 09:18:46;;;;;;;;;3.00;3.00;;;;;13.26;73.29;101742.91;5062868;28;46883;-76
2023/01/06 09:21:11;;;;;;;;;3.00;3.00;;;;;12.74;73.23;101664.75;5070114;28;46185;-77
2023/01/06 09:23:37;;;;;;;;;7.00;5.67;;;;;12.99;73.39;101706.94;5063584;28;45473;-82
2023/01/06 09:26:02;;;;;;;;;2.67;2.67;;;;;11.76;73.27;101499.16;5063639;28;45447;-76
2023/01/06 09:28:27;;;;;;;;;3.00;3.00;;;;;13.00;73.21;101711.31;5067490;28;45743;-76
2023/01/06 09:30:53;;;;;;;;;4.00;4.00;;;;;13.19;73.32;101745.25;5078497;27;45397;-77
2023/01/06 09:33:18;;;;;;;;;3.00;3.00;;;;;12.96;73.30;101699.22;5074666;28;45503;-79
2023/01/06 09:35:44;;;;;;;;;2.33;2.33;;;;;13.09;73.22;101715.00;5077275;28;45557;-78
2023/01/06 09:38:15;;;;;;;;;2.67;2.67;;;;;13.27;73.42;101755.28;5069176;27;46421;-77
2023/01/06 09:41:00;;;;;;;;;4.67;4.67;;;;;12.95;73.47;101721.56;5072888;27;45418;-76
2023/01/06 09:43:28;;;;;;;;;6.00;6.00;;;;;11.93;73.82;101540.38;5085183;27;45373;-77
2023/01/06 09:46:00;;;;;;;;;6.33;5.67;;;;;13.22;73.76;101760.19;5077310;28;45444;-75
2023/01/06 09:48:32;;;;;;;;;3.00;3.00;;;;;13.27;73.60;101755.28;5067955;28;46589;-76
2023/01/06 09:51:04;;;;;;;;;4.00;4.00;;;;;12.32;74.02;101595.53;5072319;27;45323;-77
2023/01/06 09:53:36;;;;;;;;;6.67;5.67;;;;;12.95;73.72;101702.88;5059499;27;45563;-76
2023/01/06 09:56:06;;;;;;;;;4.33;4.33;;;;;13.17;73.90;101744.53;5057499;28;45712;-74
2023/01/06 09:58:37;;;;;;;;;4.00;4.00;;;;;12.91;73.56;101706.78;5057426;28;46222;-75
2023/01/06 10:01:14;;;;;;;;;4.00;4.00;;;;;13.24;73.49;101761.75;5057515;28;45454;-76
2023/01/06 10:03:40;;;;;;;;;4.33;3.00;;;;;13.17;73.07;101757.03;5074583;28;45476;-77
2023/01/06 10:06:38;;;;;;;;;3.00;3.00;;;;;13.40;73.37;101769.22;5076325;28;45264;-76
2023/01/06 10:09:29;;;;;;;;;4.00;4.00;;;;;13.37;73.06;101758.81;5056979;28;47669;-74
2023/01/06 10:12:09;;;;;;;;;4.33;4.33;;;;;13.40;73.02;101769.22;5072724;27;45557;-77
2023/01/06 10:14:55;;;;;;;;;4.00;3.00;;;;;13.39;72.81;101775.53;5073860;28;45542;-79
2023/01/06 10:17:49;;;;;;;;;5.00;5.00;;;;;11.62;72.81;101500.38;5052857;27;45425;-77
2023/01/06 10:20:38;;;;;;;;;4.67;4.67;;;;;13.42;73.39;101769.94;5037331;28;47720;-77
2023/01/06 10:23:31;;;;;;;;;6.00;5.00;;;;;13.36;72.99;101754.44;5049282;28;45484;-77
2023/01/06 10:26:24;;;;;;;;;9.00;7.67;;;;;13.22;73.00;101730.81;5049003;28;45309;-75
2023/01/06 10:28:53;;;;;;;;;3.00;3.00;;;;;13.24;72.75;101728.84;5027902;28;45438;-74
2023/01/06 10:31:33;;;;;;;;;5.67;4.67;;;;;13.54;72.78;101774.16;5040827;28;45391;-75
2023/01/06 10:34:01;;;;;;;;;4.00;3.00;;;;;13.44;72.67;101761.78;5040229;28;45507;-77
2023/01/06 10:36:41;;;;;;;;;2.67;2.67;;;;;13.32;73.16;101737.84;5038955;28;45313;-76
2023/01/06 10:39:18;;;;;;;;;5.00;3.67;;;;;13.38;72.71;101750.66;5030647;28;46181;-77
2023/01/06 10:44:46;;;;;;;;;3.33;3.33;;;;;13.39;72.98;101754.16;5037348;28;45220;-76
2023/01/06 10:47:22;;;;;;;;;4.33;4.33;;;;;13.21;73.16;101723.75;5028389;28;45572;-77
2023/01/06 10:49:47;;;;;;;;;4.67;4.67;;;;;13.38;72.91;101749.81;5032323;28;45530;-75
2023/01/06 10:52:13;;;;;;;;;7.00;6.67;;;;;13.50;72.98;101763.91;5057608;28;46629;-77
2023/01/06 10:54:40;;;;;;;;;5.00;5.00;;;;;13.09;72.72;101699.81;5057778;28;45466;-75
2023/01/06 10:57:13;;;;;;;;;4.33;4.33;;;;;13.47;72.92;101765.03;5055128;28;45410;-75
2023/01/06 11:00:11;;;;;;;;;4.00;4.00;;;;;13.53;72.89;101751.09;5034230;28;45326;-76
2023/01/06 11:02:47;;;;;;;;;5.67;3.00;;;;;12.70;72.68;101601.97;5046274;28;46642;-80
2023/01/06 11:05:15;;;;;;;;;4.67;4.67;;;;;13.57;72.75;101741.81;5048084;28;45495;-77
2023/01/06 11:08:02;;;;;;;;;3.67;3.67;;;;;13.59;72.65;101741.69;5053062;28;45345;-78
2023/01/06 11:10:42;;;;;;;;;6.67;5.67;;;;;13.49;72.60;101722.97;5018669;28;45424;-76
2023/01/06 11:13:24;;;;;;;;;6.67;4.00;;;;;12.78;72.69;101604.78;5039297;28;46429;-76
2023/01/06 11:15:49;;;;;;;;;4.33;4.33;;;;;13.31;72.74;101660.53;5047991;28;45451;-76
2023/01/06 11:18:30;;;;;;;;;5.67;4.33;;;;;13.75;72.24;101725.09;5068519;28;45366;-78
2023/01/06 11:21:15;;;;;;;;;4.00;4.00;;;;;13.32;71.86;101641.72;5057537;28;45229;-76
2023/01/06 11:23:42;;;;;;;;;4.67;4.67;;;;;13.92;71.76;101735.94;5068730;28;46607;-78
2023/01/06 11:26:10;;;;;;;;;8.67;8.67;;;;;13.93;71.61;101726.91;5076930;28;45250;-77
2023/01/06 11:28:36;;;;;;;;;4.67;4.67;;;;;13.89;71.76;101714.00;5064246;28;45470;-78
2023/01/06 11:31:06;;;;;;;;;3.25;3.25;;;;;13.92;71.61;101724.41;5072345;28;45328;-77
2023/01/06 11:33:35;;;;;;;;;5.67;5.67;;;;;13.79;71.27;101697.94;5069408;28;46264;-79
2023/01/06 11:36:12;;;;;;;;;8.33;5.00;;;;;13.90;71.57;101702.31;5080421;28;45350;-77
2023/01/06 11:38:44;;;;;;;;;6.00;6.00;;;;;14.05;71.39;101729.47;5080234;27;45605;-76
2023/01/06 11:41:11;;;;;;;;;6.00;6.00;;;;;13.56;71.13;101640.44;5080868;27;45506;-78
2023/01/06 11:43:41;;;;;;;;;5.00;5.00;;;;;14.03;70.90;101732.28;5095494;27;48792;-79